• Join FlightAware (Why Join?)
  • Login
  • US Flag 
10:00PM EST


 

Airport Tracker/Info


-or-


 

Live Flight TrackerFlight Track Log ✈ BAW169 ✈ 06-May-2013 ✈ EGLL / LHR - ZSPD / PVG

Flight Track Log - Related Links

Times and Time Zones

All times are in EDT time to prevent confusion due to time zone crossing. See the BAW169 flight status page for this flight to view local times or setup timezone preferences in your user account.

Time Position Orientation Groundspeed Altitude Reporting Facility
EDT Latitude Longitude Course Direction KTS MPH feet Rate Location/Type
09:13AM 51.4650 -0.4770 269° West 184 212 200  Level FlightAware
09:13AM 51.4642 -0.4983 267° West 185 213 900 2,700 Climbing FlightAware ADS-B
09:13AM 51.4656 -0.5143 278° West 186 214 1,300 1,860 Climbing FlightAware ADS-B
09:13AM 51.4671 -0.5200 293° West 193 222 1,400 1,080 Climbing FlightAware ADS-B
09:13AM 51.4698 -0.5287 296° West 200 230 1,500 780 Climbing FlightAware ADS-B
09:13AM 51.4770 -0.5502 298° West 218 251 1,700 660 Climbing FlightAware ADS-B
09:14AM 51.4867 -0.5791 298° West 247 284 1,900 1,200 Climbing FlightAware ADS-B
09:14AM 51.4953 -0.6045 299° West 255 293 2,400 1,920 Climbing FlightAware ADS-B
09:14AM 51.5041 -0.6313 298° West 265 305 2,900 2,040 Climbing FlightAware ADS-B
09:14AM 51.5083 -0.6434 299° West 268 308 3,200 2,400 Climbing FlightAware ADS-B
09:14AM 51.5106 -0.6487 305° West 269 310 3,300 2,220 Climbing FlightAware ADS-B
09:15AM 51.5146 -0.6557 312° West 272 313 3,500 1,980 Climbing FlightAware ADS-B
09:15AM 51.5182 -0.6607 320° Northwest 274 315 3,600 2,220 Climbing FlightAware ADS-B
09:15AM 51.5230 -0.6652 330° Northwest 274 315 3,800 2,220 Climbing FlightAware ADS-B
09:15AM 51.5276 -0.6684 337° Northwest 275 316 3,900 2,220 Climbing FlightAware ADS-B
09:15AM 51.5317 -0.6703 344° North 275 316 4,100 3,000 Climbing FlightAware ADS-B
09:15AM 51.5370 -0.6717 351° North 275 316 4,300 2,520 Climbing FlightAware ADS-B
09:15AM 51.5413 -0.6721 357° North 276 318 4,400 1,680 Climbing FlightAware ADS-B
09:15AM 51.5461 -0.6717 North 278 320 4,500 1,680 Climbing FlightAware ADS-B
09:15AM 51.5499 -0.6708 North 279 321 4,600 1,980 Climbing FlightAware ADS-B
09:15AM 51.5537 -0.6693 14° North 280 322 4,700 1,680 Climbing FlightAware ADS-B
09:15AM 51.5581 -0.6668 20° North 281 323 4,800 2,520 Climbing FlightAware ADS-B
09:15AM 51.5623 -0.6633 27° Northeast 281 323 5,000 3,000 Climbing FlightAware ADS-B
09:15AM 51.5661 -0.6595 32° Northeast 282 325 5,100 1,680 Climbing FlightAware ADS-B
09:15AM 51.5694 -0.6553 38° Northeast 282 325 5,200 2,520 Climbing FlightAware ADS-B
09:15AM 51.5727 -0.6499 46° Northeast 282 325 5,400 2,520 Climbing FlightAware ADS-B
09:15AM 51.5760 -0.6433 51° Northeast 283 326 5,500 1,320 Climbing FlightAware ADS-B
09:16AM 51.5796 -0.6342 57° Northeast 287 330 5,600 900 Climbing FlightAware ADS-B
09:16AM 51.5882 -0.6084 62° Northeast 296 341 5,800 600 Climbing FlightAware ADS-B
09:16AM 51.5990 -0.5788 59° Northeast 297 342 5,900  Climbing FlightAware ADS-B
09:16AM 51.6077 -0.5566 58° Northeast 301 346 5,800  Descending FlightAware ADS-B
09:16AM 51.6167 -0.5348 56° Northeast 297 342 5,900 300 Climbing FlightAware ADS-B
09:17AM 51.6223 -0.5196 59° Northeast 298 343 5,900  Level FlightAware ADS-B
09:17AM 51.6316 -0.4915 62° Northeast 297 342 5,900  Level FlightAware ADS-B
09:17AM 51.6408 -0.4611 64° Northeast 296 341 5,900  Level FlightAware ADS-B
09:17AM 51.6518 -0.4252 64° Northeast 291 335 5,900  Level FlightAware ADS-B
09:18AM 51.6612 -0.3944 64° Northeast 295 339 5,900 1,140 Level FlightAware ADS-B
09:18AM 51.6705 -0.3640 64° Northeast 297 342 6,500 1,860 Climbing FlightAware ADS-B
09:18AM 51.6808 -0.3305 64° Northeast 299 344 6,900 900 Climbing FlightAware ADS-B
09:18AM 51.6901 -0.3006 63° Northeast 301 346 7,000 900 Climbing FlightAware ADS-B
09:19AM 51.7007 -0.2666 63° Northeast 305 351 7,400 2,040 Climbing FlightAware ADS-B
09:19AM 51.7104 -0.2354 63° Northeast 305 351 8,100 2,520 Climbing FlightAware ADS-B
09:19AM 51.7183 -0.2102 63° Northeast 307 353 8,600 2,580 Climbing FlightAware ADS-B
09:19AM 51.7255 -0.1888 61° Northeast 309 356 9,100 2,880 Climbing FlightAware ADS-B
09:20AM 51.7361 -0.1592 60° Northeast 307 353 9,800 1,740 Climbing FlightAware ADS-B
09:20AM 51.7480 -0.1266 59° Northeast 325 374 10,000 720 Climbing FlightAware ADS-B
09:20AM 51.7729 -0.0595 59° Northeast 356 410 10,400 1,080 Climbing FlightAware ADS-B
09:21AM 51.8018 0.0177 59° Northeast 379 436 11,200  Climbing FlightAware ADS-B
09:21AM 51.8171 0.0586 59° Northeast 380 437 10,400 2,700 Descending FlightAware UK
09:21AM 51.8299 0.0934 59° Northeast 385 443 12,600 4,620 Climbing FlightAware ADS-B
09:22AM 51.8575 0.1680 59° Northeast 391 450 13,900 2,520 Climbing FlightAware ADS-B
09:22AM 51.8872 0.2487 59° Northeast 398 458 15,200 600 Climbing FlightAware ADS-B
09:23AM 51.9126 0.3172 59° Northeast 400 460 14,500 2,100 Descending FlightAware UK
09:23AM 51.9224 0.3447 59° Northeast 412 474 16,500 2,400 Climbing FlightAware ADS-B
09:23AM 51.9415 0.3972 59° Northeast 408 470 15,700 2,100 Descending FlightAware UK
09:24AM 51.9582 0.4433 59° Northeast 421 484 17,800 1,980 Climbing FlightAware ADS-B
09:24AM 51.9836 0.5128 59° Northeast 416 479 17,100 2,040 Descending FlightAware UK
09:24AM 51.9969 0.5481 59° Northeast 424 488 19,100 5,760 Climbing FlightAware ADS-B
09:24AM 52.0104 0.5773 53° Northeast 437 503 19,500 1,920 Climbing FlightAware ADS-B
09:25AM 52.0441 0.6316 45° Northeast 445 512 20,200 1,800 Climbing FlightAware ADS-B
09:25AM 52.0946 0.6908 36° Northeast 453 521 21,100 1,740 Climbing FlightAware ADS-B
09:26AM 52.1475 0.7517 35° Northeast 462 532 22,000  Climbing FlightAware ADS-B
09:26AM 52.1895 0.7995 35° Northeast 444 511 21,100 1,800 Descending FlightAware UK
09:26AM 52.2048 0.8173 35° Northeast 468 539 23,000 4,020 Climbing FlightAware ADS-B
09:27AM 52.2588 0.8795 35° Northeast 473 544 23,800 -120 Climbing FlightAware ADS-B
09:27AM 52.2964 0.9229 35° Northeast 454 522 22,900 1,680 Descending FlightAware UK
09:27AM 52.3155 0.9452 35° Northeast 479 551 24,700 3,780 Climbing FlightAware ADS-B
09:28AM 52.3713 1.0101 35° Northeast 484 557 25,500 -240 Climbing FlightAware ADS-B
09:28AM 52.4165 1.0627 35° Northeast 462 532 24,500 1,320 Descending FlightAware UK
09:28AM 52.4275 1.0757 35° Northeast 491 565 26,200 3,840 Climbing FlightAware ADS-B
09:29AM 52.4856 1.1436 35° Northeast 498 573 26,900 -660 Climbing FlightAware ADS-B
09:29AM 52.5171 1.1806 35° Northeast 468 539 25,700 1,320 Descending FlightAware UK
09:30AM 52.5443 1.2127 35° Northeast 505 581 27,600 3,420 Climbing FlightAware ADS-B
09:30AM 52.6025 1.2813 36° Northeast 509 586 28,300 -660 Climbing FlightAware ADS-B
09:30AM 52.6317 1.3154 36° Northeast 482 555 27,100 1,560 Descending FlightAware UK
09:31AM 52.6600 1.3491 36° Northeast 512 589 29,100 1,560 Climbing FlightAware ADS-B
09:31AM 52.6892 1.3834 36° Northeast 488 562 27,900 1,680 Descending FlightAware UK
09:31AM 52.7214 1.4218 36° Northeast 510 587 30,000 2,160 Climbing FlightAware ADS-B
09:31AM 52.7579 1.4653 36° Northeast 488 562 29,200 1,680 Descending FlightAware UK
09:32AM 52.7875 1.5006 36° Northeast 498 573 31,000 480 Climbing FlightAware ADS-B
09:32AM 52.8252 1.5454 36° Northeast 480 552 29,500  Descending FlightAware UK
09:32AM 52.8557 1.5822 36° Northeast 500 575 31,000  Climbing FlightAware ADS-B
09:33AM 52.9033 1.6394 36° Northeast 480 552 29,500  Descending FlightAware UK
09:33AM 52.9246 1.6654 36° Northeast 503 579 31,000  Climbing FlightAware ADS-B
09:33AM 52.9599 1.7081 36° Northeast 482 555 29,500  Descending FlightAware UK
09:33AM 52.9823 1.7353 36° Northeast 508 585 31,000  Climbing FlightAware ADS-B
09:34AM 53.0165 1.7769 36° Northeast 484 557 29,500 -2,520 Descending FlightAware UK
09:34AM 53.0506 1.8186 36° Northeast 486 559 29,500 3,420 Level FlightAware UK
09:34AM 53.0649 1.8358 36° Northeast 509 586 31,000  Climbing FlightAware ADS-B
09:34AM 53.0962 1.8743 36° Northeast 484 557 29,500 -2,280 Descending FlightAware UK
09:35AM 53.1417 1.9300 36° Northeast 484 557 29,500  Level FlightAware UK
09:35AM 53.1872 1.9857 36° Northeast 484 557 29,500  Level FlightAware UK
09:36AM 53.2327 2.0416 36° Northeast 484 557 29,500  Level FlightAware UK
09:36AM 53.2669 2.0836 36° Northeast 484 557 29,500  Level FlightAware UK
09:36AM 53.3010 2.1257 36° Northeast 484 557 29,500  Level FlightAware UK
09:36AM 53.3351 2.1678 36° Northeast 484 557 29,500  Level FlightAware UK
09:37AM 53.3692 2.2098 36° Northeast 484 557 29,500 3,060 Level FlightAware UK
09:37AM 53.3830 2.2280 36° Northeast 510 587 31,000  Climbing FlightAware
09:37AM 53.4259 2.2804 36° Northeast 486 559 29,500 -2,460 Descending FlightAware UK
09:38AM 53.4603 2.3234 37° Northeast 484 557 29,500 4,260 Level FlightAware UK
09:38AM 53.4590 2.3210 37° Northeast 511 588 31,000  Climbing FlightAware
09:38AM 53.4943 2.3659 37° Northeast 482 555 29,500 -2,760 Descending FlightAware UK
09:38AM 53.5287 2.4090 37° Northeast 484 557 29,500 3,600 Level FlightAware UK
09:38AM 53.5360 2.4190 37° Northeast 511 588 31,000  Climbing FlightAware
09:39AM 53.5854 2.4802 37° Northeast 484 557 29,500  Descending FlightAware UK
09:39AM 53.6140 2.5160 37° Northeast 512 589 31,000  Climbing FlightAware
09:39AM 53.6195 2.5231 37° Northeast 484 557 29,500 -3,600 Descending FlightAware UK
09:39AM 53.6649 2.5802 37° Northeast 484 557 29,500  Level FlightAware UK
09:40AM 53.7561 2.6958 37° Northeast 486 559 29,500  Level FlightAware UK
09:40AM 53.7902 2.7391 37° Northeast 484 557 29,500  Level FlightAware UK
09:41AM 53.8242 2.7824 37° Northeast 486 559 29,500  Level FlightAware UK
09:41AM 53.8581 2.8257 37° Northeast 486 559 29,500  Level FlightAware UK
09:41AM 53.8916 2.8686 37° Northeast 486 559 29,500  Level FlightAware UK
09:42AM 53.9820 2.9848 37° Northeast 484 557 29,500 1,260 Level FlightAware UK
09:43AM 54.0100 3.0210 37° Northeast 509 586 31,000  Climbing FlightAware
09:43AM 54.0494 3.0717 37° Northeast 484 557 29,500  Descending FlightAware UK
09:43AM 54.0900 3.1240 37° Northeast 510 587 31,000 1,260 Climbing FlightAware
09:44AM 54.1700 3.2290 38° Northeast 510 587 31,000 -1,440 Level FlightAware
09:44AM 54.2178 3.2906 38° Northeast 484 557 29,500 -2,400 Descending FlightAware UK
09:45AM 54.2515 3.3346 37° Northeast 484 557 29,500 4,500 Level FlightAware UK
09:45AM 54.2500 3.3330 37° Northeast 510 587 31,000  Climbing FlightAware
09:45AM 54.2963 3.3937 37° Northeast 484 557 29,500  Descending FlightAware UK
09:45AM 54.3340 3.4430 37° Northeast 510 587 31,000  Climbing FlightAware
09:46AM 54.3970 3.5267 37° Northeast 484 557 29,500  Descending FlightAware UK
09:46AM 54.4090 3.5430 37° Northeast 510 587 31,000  Climbing FlightAware
09:46AM 54.4642 3.6155 37° Northeast 484 557 29,500  Descending FlightAware UK
09:47AM 54.4810 3.6380 37° Northeast 511 588 31,000  Climbing FlightAware
09:47AM 54.5425 3.7199 37° Northeast 484 557 29,500  Descending FlightAware UK
09:47AM 54.5680 3.7530 37° Northeast 511 588 31,000  Climbing FlightAware
09:48AM 54.6211 3.8254 37° Northeast 484 557 29,500  Descending FlightAware UK
09:48AM 54.6440 3.8560 37° Northeast 510 587 31,000  Climbing FlightAware
09:48AM 54.6770 3.9005 37° Northeast 482 555 29,500 -2,280 Descending FlightAware UK
09:49AM 54.7217 3.9606 38° Northeast 482 555 29,500 3,720 Level FlightAware UK
09:49AM 54.7190 3.9570 38° Northeast 512 589 31,000 1,980 Climbing FlightAware
09:50AM 54.8020 4.0710 38° Northeast 512 589 31,000 -1,380 Level FlightAware
09:50AM 54.8398 4.1368 38° Northeast 484 557 29,500 -2,340 Descending FlightAware UK
09:50AM 54.8673 4.1929 50° Northeast 484 557 29,500 4,680 Level FlightAware UK
09:50AM 54.8640 4.1860 50° Northeast 509 586 31,000 2,460 Climbing FlightAware
09:51AM 54.9110 4.2900 52° Northeast 510 587 31,000  Level FlightAware
09:52AM 54.9860 4.4550 52° Northeast 511 588 31,000  Level FlightAware
09:52AM 55.0460 4.5880 52° Northeast 509 586 31,000 -1,560 Level FlightAware
09:53AM 55.0766 4.6568 52° Northeast 486 559 29,500  Descending FlightAware UK
09:53AM 55.1070 4.7240 52° Northeast 504 580 31,000  Climbing FlightAware
09:53AM 55.1549 4.8310 52° Northeast 488 562 29,500  Descending FlightAware UK
09:54AM 55.1650 4.8530 52° Northeast 502 578 31,000 1,500 Climbing FlightAware
09:54AM 55.2290 4.9990 52° Northeast 505 581 31,000 -1,140 Level FlightAware
09:55AM 55.2919 5.1410 52° Northeast 486 559 29,500  Descending FlightAware UK
09:55AM 55.2930 5.1420 52° Northeast 503 579 31,000  Climbing FlightAware
09:56AM 55.3430 5.2578 52° Northeast 486 559 29,500  Descending FlightAware UK
09:56AM 55.3510 5.2740 52° Northeast 500 575 31,000  Climbing FlightAware
09:56AM 55.3849 5.3547 52° Northeast 486 559 29,500  Descending FlightAware UK
09:57AM 55.4070 5.4040 52° Northeast 498 573 31,000 1,320 Climbing FlightAware
09:57AM 55.4700 5.5480 52° Northeast 493 567 31,000  Level FlightAware
09:58AM 55.5240 5.6750 53° Northeast 492 566 31,000 -1,380 Level FlightAware
09:58AM 55.5690 5.7778 53° Northeast 1 1 29,500  Descending FlightAware UK
09:59AM 55.5800 5.8040 53° Northeast 492 566 31,000 1,500 Climbing FlightAware
09:59AM 55.6430 5.9520 53° Northeast 492 566 31,000 -1,440 Level FlightAware
10:00AM 55.6763 6.0308 53° Northeast 1 1 29,500  Descending FlightAware UK
10:00AM 55.6980 6.0820 53° Northeast 496 571 31,000 1,320 Climbing FlightAware
10:01AM 55.7600 6.2290 53° Northeast 497 572 31,000 -1,200 Level FlightAware
10:01AM 55.8084 6.3429 53° Northeast 1 1 29,500  Descending FlightAware UK
10:01AM 55.8130 6.3550 53° Northeast 498 573 31,000 1,800 Climbing FlightAware
10:02AM 55.8700 6.4910 53° Northeast 499 574 31,000  Level FlightAware
10:03AM 55.9300 6.6370 54° Northeast 498 573 31,000  Level FlightAware
10:04AM 55.9870 6.7730 53° Northeast 498 573 31,000  Level FlightAware
10:04AM 56.0480 6.9220 54° Northeast 498 573 31,000  Level FlightAware
10:05AM 56.0950 7.0380 54° Northeast 498 573 31,000  Level FlightAware
10:06AM 56.1620 7.2020 54° Northeast 498 573 31,000  Level FlightAware
10:06AM 56.2170 7.3390 54° Northeast 498 573 31,000  Level FlightAware
10:07AM 56.2690 7.4690 54° Northeast 497 572 31,000  Level FlightAware
10:08AM 56.3300 7.6210 54° Northeast 496 571 31,000  Level FlightAware
10:08AM 56.3840 7.7590 55° Northeast 496 571 31,000  Level FlightAware
10:09AM 56.4450 7.9130 54° Northeast 497 572 31,000  Level FlightAware
10:10AM 56.4980 8.0490 55° Northeast 496 571 31,000  Level FlightAware
10:11AM 56.5510 8.1850 55° Northeast 496 571 31,000  Level FlightAware
10:11AM 56.6090 8.3350 55° Northeast 495 570 31,000  Level FlightAware
10:12AM 56.6620 8.4720 55° Northeast 496 571 31,000  Level FlightAware
10:13AM 56.7230 8.6310 55° Northeast 498 573 31,000  Level FlightAware
10:13AM 56.7810 8.7840 55° Northeast 499 574 31,000  Level FlightAware
10:16AM 56.9321 9.1730 54° Northeast  Level Estimated
10:17AM 57.0054 9.3638 55° Northeast  Level Estimated
10:18AM 57.0784 9.5555 55° Northeast  Level Estimated
10:18AM 57.1400 9.7510 55° Northeast 485 558 31,000  Level FlightAware
10:21AM 57.3121 10.2124 55° Northeast  Level Estimated
10:21AM 57.3720 10.3950 55° Northeast 479 551 31,000  Level FlightAware
10:23AM 57.4890 10.7300 57° Northeast 479 551 31,000  Level FlightAware
10:24AM 57.5370 10.8670 57° Northeast 478 550 31,000  Level FlightAware
10:24AM 57.5920 11.0260 57° Northeast 479 551 31,000  Level FlightAware
10:25AM 57.6390 11.1620 57° Northeast 479 551 31,000 60 Level FlightAware
10:26AM 57.6880 11.3050 57° Northeast 481 554 31,100 660 Climbing FlightAware
10:26AM 57.7410 11.4620 58° Northeast 479 551 32,000 600 Climbing FlightAware
10:27AM 57.7880 11.6000 57° Northeast 480 552 32,000  Level FlightAware
10:28AM 57.8350 11.7410 58° Northeast 480 552 32,000  Level FlightAware
10:29AM 57.8890 11.9010 58° Northeast 481 554 32,000  Level FlightAware
10:29AM 57.9350 12.0420 58° Northeast 481 554 32,000  Level FlightAware
10:30AM 57.9880 12.2010 58° Northeast 480 552 32,000 420 Level FlightAware
10:31AM 58.0310 12.3350 59° Northeast 481 554 32,600 720 Climbing FlightAware
10:31AM 58.0790 12.4810 58° Northeast 478 550 33,000 240 Climbing FlightAware
10:32AM 58.1330 12.6480 58° Northeast 481 554 33,000  Level FlightAware
10:33AM 58.1780 12.7890 59° Northeast 482 555 33,000  Level FlightAware
10:33AM 58.2250 12.9340 58° Northeast 483 556 33,000  Level FlightAware
10:34AM 58.2720 13.0810 59° Northeast 485 558 33,000  Level FlightAware
10:35AM 58.3300 13.2680 59° Northeast 486 559 33,000  Level FlightAware
10:36AM 58.3770 13.4170 59° Northeast 488 562 33,000  Level FlightAware
10:36AM 58.4230 13.5650 59° Northeast 489 563 33,000  Level FlightAware
10:37AM 58.4730 13.7260 59° Northeast 491 565 33,000  Level FlightAware
10:38AM 58.5190 13.8750 59° Northeast 493 567 33,000  Level FlightAware
10:38AM 58.5650 14.0280 60° Northeast 493 567 33,000  Level FlightAware
10:39AM 58.6180 14.2030 60° Northeast 494 568 33,000  Level FlightAware
10:40AM 58.6630 14.3520 60° Northeast 494 568 33,000  Level FlightAware
10:40AM 58.7130 14.5210 60° Northeast 494 568 33,000  Level FlightAware
10:41AM 58.7590 14.6740 60° Northeast 495 570 33,000  Level FlightAware
10:42AM 58.8030 14.8240 60° Northeast 497 572 33,000  Level FlightAware
10:43AM 58.8550 15.0030 61° Northeast 498 573 33,000  Level FlightAware
10:43AM 58.9010 15.1620 61° Northeast 499 574 33,000  Level FlightAware
10:44AM 58.9470 15.3180 60° Northeast 500 575 33,000  Level FlightAware
10:45AM 58.9960 15.4900 61° Northeast 501 577 33,000  Level FlightAware
10:45AM 59.0400 15.6470 61° Northeast 503 579 33,000  Level FlightAware
10:46AM 59.0850 15.8060 61° Northeast 503 579 33,000  Level FlightAware
10:47AM 59.1360 15.9880 61° Northeast 505 581 33,000  Level FlightAware
10:47AM 59.1810 16.1490 61° Northeast 504 580 33,000  Level FlightAware
10:48AM 59.2290 16.3230 62° Northeast 507 583 33,000  Level FlightAware
10:49AM 59.2740 16.4870 62° Northeast 508 585 33,000  Level FlightAware
10:50AM 59.3230 16.6700 62° Northeast 510 587 33,000  Level FlightAware
10:50AM 59.3680 16.8330 61° Northeast 510 587 33,000  Level FlightAware
10:51AM 59.4110 16.9940 62° Northeast 512 589 33,000  Level FlightAware
10:52AM 59.4600 17.1790 62° Northeast 511 588 33,000  Level FlightAware
10:52AM 59.5030 17.3440 63° Northeast 511 588 33,000  Level FlightAware
10:53AM 59.5530 17.5350 63° Northeast 508 585 33,000  Level FlightAware
10:54AM 59.5950 17.6940 62° Northeast 508 585 33,000  Level FlightAware
10:54AM 59.6380 17.8610 63° Northeast 510 587 33,000  Level FlightAware
10:55AM 59.6800 18.0280 63° Northeast 510 587 33,000  Level FlightAware
10:56AM 59.7270 18.2110 63° Northeast 511 588 33,000  Level FlightAware
10:56AM 59.7690 18.3780 63° Northeast 511 588 33,000  Level FlightAware
10:57AM 59.8160 18.5680 64° Northeast 512 589 33,000  Level FlightAware
10:58AM 59.8580 18.7360 63° Northeast 512 589 33,000  Level FlightAware
10:59AM 59.9040 18.9220 64° Northeast 515 593 33,000  Level FlightAware
10:59AM 59.9450 19.0930 64° Northeast 515 593 33,000  Level FlightAware
11:00AM 59.9890 19.2720 64° Northeast 515 593 33,000  Level FlightAware
11:01AM 60.0370 19.4580 63° Northeast 517 595 33,000  Level FlightAware
11:01AM 60.0830 19.6190 60° Northeast 518 596 33,000  Level FlightAware
11:02AM 60.1380 19.8140 60° Northeast 517 595 33,000  Level FlightAware
11:03AM 60.1850 19.9820 61° Northeast 516 594 33,000  Level FlightAware
11:03AM 60.2330 20.1500 60° Northeast 517 595 33,000  Level FlightAware
11:04AM 60.2820 20.3300 61° Northeast 518 596 33,000  Level FlightAware
11:05AM 60.3290 20.5000 61° Northeast 518 596 33,000  Level FlightAware
11:06AM 60.3820 20.6940 61° Northeast 519 597 33,000  Level FlightAware
11:06AM 60.4330 20.8820 61° Northeast 520 598 33,000  Level FlightAware
11:07AM 60.4790 21.0520 61° Northeast 519 597 33,000  Level FlightAware
11:08AM 60.5240 21.2210 62° Northeast 519 597 33,000  Level FlightAware
11:08AM 60.5750 21.4170 62° Northeast 519 597 33,000  Level FlightAware
11:09AM 60.6210 21.5900 61° Northeast 519 597 33,000  Level FlightAware
11:10AM 60.6660 21.7630 62° Northeast 521 600 33,000  Level FlightAware
11:11AM 60.7150 21.9560 63° Northeast 522 601 33,000  Level FlightAware
11:11AM 60.7600 22.1310 62° Northeast 522 601 33,000  Level FlightAware
11:12AM 60.8030 22.2990 62° Northeast 521 600 33,000  Level FlightAware
11:13AM 60.8460 22.4700 63° Northeast 521 600 33,000  Level FlightAware
11:13AM 60.8970 22.6740 63° Northeast 522 601 33,000  Level FlightAware
11:14AM 60.9460 22.8720 63° Northeast 522 601 33,000  Level FlightAware
11:15AM 60.9890 23.0490 63° Northeast 523 602 33,000  Level FlightAware
11:15AM 61.0330 23.2270 63° Northeast 523 602 33,000  Level FlightAware
11:16AM 61.0810 23.4260 63° Northeast 523 602 33,000  Level FlightAware
11:17AM 61.1240 23.6070 64° Northeast 524 603 33,000  Level FlightAware
11:17AM 61.1650 23.7820 64° Northeast 524 603 33,000  Level FlightAware
11:18AM 61.2120 23.9790 64° Northeast 525 604 33,000  Level FlightAware
11:19AM 61.2560 24.1670 64° Northeast 525 604 33,000  Level FlightAware
11:20AM 61.3030 24.3720 64° Northeast 526 605 33,000  Level FlightAware
11:20AM 61.3440 24.5480 64° Northeast 526 605 33,000  Level FlightAware
11:21AM 61.3900 24.7520 65° Northeast 527 606 33,000  Level FlightAware
11:22AM 61.4290 24.9280 65° Northeast 527 606 33,000  Level FlightAware
11:22AM 61.4730 25.1260 65° Northeast 527 606 33,000  Level FlightAware
11:23AM 61.5110 25.2970 65° Northeast 527 606 33,000  Level FlightAware
11:25AM 61.6430 25.9060 65° Northeast 529 609 33,000  Level FlightAware
11:26AM 61.6840 26.0970 66° East 528 608 33,000  Level FlightAware
11:27AM 61.7290 26.3100 66° East 528 608 33,000  Level FlightAware
11:27AM 61.7650 26.4850 66° East 528 608 33,000  Level FlightAware
11:28AM 61.8070 26.6840 66° East 524 603 33,000  Level FlightAware
11:29AM 61.8500 26.8960 67° East 525 604 33,000  Level FlightAware
11:29AM 61.8880 27.0830 67° East 525 604 33,000  Level FlightAware
11:30AM 61.9300 27.2950 67° East 522 601 33,000  Level FlightAware
11:31AM 61.9680 27.4820 67° East 522 601 33,000  Level FlightAware
11:31AM 62.0050 27.6690 67° East 522 601 33,000  Level FlightAware
11:32AM 62.0460 27.8800 67° East 523 602 33,000  Level FlightAware
11:33AM 62.0820 28.0690 68° East 523 602 33,000  Level FlightAware
11:34AM 62.1240 28.2870 68° East 522 601 33,000  Level FlightAware
11:34AM 62.1600 28.4760 68° East 521 600 33,000  Level FlightAware
11:35AM 62.1950 28.6650 68° East 522 601 33,000  Level FlightAware
11:36AM 62.2350 28.8820 68° East 521 600 33,000  Level FlightAware
11:36AM 62.2690 29.0660 68° East 522 601 33,000  Level FlightAware
11:37AM 62.3050 29.2650 69° East 522 601 33,000  Level FlightAware
11:38AM 62.3430 29.4760 69° East 522 601 33,000  Level FlightAware
11:39AM 62.3830 29.7000 69° East 521 600 33,000  Level FlightAware
11:39AM 62.4160 29.8880 69° East 520 598 33,000  Level FlightAware
11:40AM 62.4550 30.1090 69° East 521 600 33,000  Level FlightAware
11:41AM 62.5120 30.4440 70° East 521 600 33,000  Level FlightAware
11:42AM 62.5570 30.7080 70° East 521 600 33,000  Level FlightAware
11:43AM 62.5870 30.8910 70° East 520 598 33,000  Level FlightAware
11:43AM 62.6160 31.0670 70° East 520 598 33,000  Level FlightAware
11:44AM 62.6620 31.3300 69° East 514 592 33,000  Level FlightAware
11:45AM 62.7110 31.5120 60° Northeast 502 578 33,000  Level FlightAware
11:46AM 62.7630 31.6700 54° Northeast 500 575 33,000  Level FlightAware
11:46AM 62.8090 31.8100 54° Northeast 500 575 33,000  Level FlightAware
11:47AM 62.8680 31.9960 55° Northeast 501 577 33,000  Level FlightAware
11:48AM 62.9270 32.1800 55° Northeast 502 578 33,000  Level FlightAware
11:48AM 62.9820 32.3540 55° Northeast 501 577 33,000  Level FlightAware
11:49AM 63.0270 32.4990 56° Northeast 501 577 33,000  Level FlightAware
11:50AM 63.0830 32.6740 55° Northeast 501 577 33,000  Level FlightAware
11:50AM 63.1390 32.8520 55° Northeast 501 577 33,000  Level FlightAware
11:51AM 63.1840 32.9950 55° Northeast 501 577 33,000  Level FlightAware
11:52AM 63.2610 33.2600 57° Northeast 499 574 33,000  Level FlightAware
11:52AM 63.3070 33.4120 56° Northeast 499 574 33,000  Level FlightAware
11:53AM 63.3580 33.5790 56° Northeast 499 574 33,000  Level FlightAware
11:54AM 63.4020 33.7240 56° Northeast 499 574 33,000  Level FlightAware
11:55AM 63.4450 33.8700 57° Northeast 499 574 33,000  Level FlightAware
11:55AM 63.5000 34.0520 56° Northeast 499 574 33,000  Level FlightAware
11:56AM 63.5440 34.1980 56° Northeast 499 574 33,000  Level FlightAware
11:57AM 63.5880 34.3440 56° Northeast 499 574 33,000  Level FlightAware
11:57AM 63.6320 34.4910 56° Northeast 499 574 33,000  Level FlightAware
11:58AM 63.6760 34.6370 56° Northeast 499 574 33,000  Level FlightAware
11:59AM 63.7310 34.8210 56° Northeast 499 574 33,000  Level FlightAware
12:00PM 63.7750 34.9680 56° Northeast 499 574 33,000  Level FlightAware
12:00PM 63.8180 35.1160 57° Northeast 499 574 33,000  Level FlightAware
12:01PM 63.8620 35.2630 56° Northeast 499 574 33,000  Level FlightAware
12:02PM 63.9060 35.4110 56° Northeast 499 574 33,000  Level FlightAware
12:02PM 63.9610 35.5960 56° Northeast 499 574 33,000  Level FlightAware
12:05PM 64.0145 36.2029 78° East  Level Estimated
12:06PM 64.0388 36.4882 79° East  Level Estimated
12:07PM 64.0624 36.7739 79° East  Level Estimated
12:08PM 64.0855 37.0602 79° East  Level Estimated
12:09PM 64.1081 37.3469 80° East  Level Estimated
12:10PM 64.1300 37.6340 80° East  Level Estimated
12:11PM 64.1514 37.9217 80° East  Level Estimated
12:12PM 64.1723 38.2097 80° East  Level Estimated
12:13PM 64.1926 38.4982 81° East  Level Estimated
12:14PM 64.2122 38.7871 81° East  Level Estimated
12:15PM 64.2314 39.0764 81° East  Level Estimated
12:16PM 64.2499 39.3661 81° East  Level Estimated
12:17PM 64.2679 39.6562 82° East  Level Estimated
12:18PM 64.2853 39.9467 82° East  Level Estimated
12:19PM 64.3022 40.2375 82° East  Level Estimated
12:20PM 64.3184 40.5287 83° East  Level Estimated
12:21PM 64.3341 40.8202 83° East  Level Estimated
12:22PM 64.3492 41.1120 83° East  Level Estimated
12:23PM 64.3637 41.4042 83° East  Level Estimated
12:24PM 64.3776 41.6966 84° East  Level Estimated
12:25PM 64.3910 41.9893 84° East  Level Estimated
12:26PM 64.4038 42.2824 84° East  Level Estimated
12:27PM 64.4159 42.5756 84° East  Level Estimated
12:28PM 64.4275 42.8692 85° East  Level Estimated
12:29PM 64.4386 43.1630 85° East  Level Estimated
12:30PM 64.4490 43.4570 85° East  Level Estimated
12:31PM 64.4588 43.7512 85° East  Level Estimated
12:32PM 64.4681 44.0456 86° East  Level Estimated
12:33PM 64.4767 44.3403 86° East  Level Estimated
12:34PM 64.4848 44.6351 86° East  Level Estimated
12:35PM 64.4923 44.9300 86° East  Level Estimated
12:36PM 64.4992 45.2252 87° East  Level Estimated
12:37PM 64.5055 45.5205 87° East  Level Estimated
12:38PM 64.5112 45.8158 87° East  Level Estimated
12:39PM 64.5163 46.1114 88° East  Level Estimated
12:40PM 64.5208 46.4070 88° East  Level Estimated
12:41PM 64.5247 46.7027 88° East  Level Estimated
12:42PM 64.5281 46.9985 88° East  Level Estimated
12:43PM 64.5308 47.2943 89° East  Level Estimated
12:44PM 64.5330 47.5903 89° East  Level Estimated
12:45PM 64.5346 47.8862 89° East  Level Estimated
12:46PM 64.5355 48.1822 89° East  Level Estimated
12:47PM 64.5359 48.4782 90° East  Level Estimated
12:48PM 64.5357 48.7742 90° East  Level Estimated
12:49PM 64.5349 49.0702 90° East  Level Estimated
12:50PM 64.5334 49.3661 91° East  Level Estimated
12:51PM 64.5314 49.6620 91° East  Level Estimated
12:52PM 64.5288 49.9579 91° East  Level Estimated
12:53PM 64.5257 50.2537 91° East  Level Estimated
12:54PM 64.5219 50.5495 92° East  Level Estimated
12:55PM 64.5175 50.8451 92° East  Level Estimated
12:56PM 64.5125 51.1407 92° East  Level Estimated
12:57PM 64.5070 51.4361 92° East  Level Estimated
12:58PM 64.5008 51.7314 93° East  Level Estimated
12:59PM 64.4941 52.0266 93° East  Level Estimated
01:00PM 64.4867 52.3216 93° East  Level Estimated
01:01PM 64.4788 52.6164 93° East  Level Estimated
01:02PM 64.4703 52.9111 94° East  Level Estimated
01:03PM 64.4612 53.2056 94° East  Level Estimated
01:04PM 64.4515 53.4999 94° East  Level Estimated
01:05PM 64.4413 53.7939 94° East  Level Estimated
01:06PM 64.4304 54.0878 95° East  Level Estimated
01:07PM 64.4189 54.3814 95° East  Level Estimated
01:08PM 64.4069 54.6747 95° East  Level Estimated
01:09PM 64.3943 54.9678 96° East  Level Estimated
01:10PM 64.3811 55.2606 96° East  Level Estimated
01:11PM 64.3673 55.5532 96° East  Level Estimated
01:12PM 64.3529 55.8454 96° East  Level Estimated
01:13PM 64.3380 56.1373 97° East  Level Estimated
01:14PM 64.3224 56.4289 97° East  Level Estimated
01:15PM 64.3063 56.7201 97° East  Level Estimated
01:16PM 64.2896 57.0110 97° East  Level Estimated
01:17PM 64.2724 57.3016 98° East  Level Estimated
01:18PM 64.2545 57.5918 98° East  Level Estimated
01:19PM 64.2361 57.8816 98° East  Level Estimated
01:20PM 64.2172 58.1710 98° East  Level Estimated
01:21PM 64.1976 58.4600 99° East  Level Estimated
01:22PM 64.1775 58.7486 99° East  Level Estimated
01:23PM 64.1568 59.0368 99° East  Level Estimated
01:24PM 64.1355 59.3245 99° East  Level Estimated
01:25PM 64.1137 59.6118 100° East  Level Estimated
01:26PM 64.0913 59.8986 100° East  Level Estimated
01:27PM 64.0683 60.1850 100° East  Level Estimated
01:28PM 64.0448 60.4709 101° East  Level Estimated
01:29PM 64.0207 60.7562 101° East  Level Estimated
01:30PM 63.9961 61.0411 101° East  Level Estimated
01:31PM 63.9709 61.3255 101° East  Level Estimated
01:32PM 63.9451 61.6094 102° East  Level Estimated
01:33PM 63.9188 61.8928 102° East  Level Estimated
01:34PM 63.8920 62.1756 102° East  Level Estimated
01:35PM 63.8646 62.4579 102° East  Level Estimated
01:36PM 63.8366 62.7396 103° East  Level Estimated
01:37PM 63.8081 63.0207 103° East  Level Estimated
01:38PM 63.7790 63.3013 103° East  Level Estimated
01:39PM 63.7494 63.5813 103° East  Level Estimated
01:39PM 62.3590 67.3620 104° East 552 635 33,000  Level FlightAware
01:40PM 63.7193 63.8607 104° East  Level Estimated
01:40PM 62.3520 67.4430 101° East 551 634 33,000  Level FlightAware
01:41PM 62.3320 67.6670 101° East 551 634 33,000  Level FlightAware
01:41PM 62.3190 67.8040 101° East 551 634 33,000  Level FlightAware
01:42PM 62.3330 67.6490 281° West 551 634 33,000  Level FlightAware
01:43PM 62.2440 68.6220 101° East 550 633 33,000  Level FlightAware
01:44PM 62.2210 68.8530 102° East 549 632 33,000  Level FlightAware
01:45PM 62.1940 69.1300 102° East 547 629 33,000  Level FlightAware
01:45PM 62.1740 69.3240 102° East 547 629 33,000  Level FlightAware
01:46PM 62.1490 69.5720 102° East 546 628 33,000  Level FlightAware
01:47PM 62.1250 69.7980 103° East 545 627 33,000  Level FlightAware
01:48PM 62.1020 70.0120 103° East 545 627 33,000  Level FlightAware
01:48PM 62.0790 70.2290 103° East 544 626 33,000  Level FlightAware
01:49PM 62.0570 70.4260 103° East 544 626 33,000  Level FlightAware
01:50PM 62.0360 70.6170 103° East 543 625 33,000  Level FlightAware
01:50PM 62.0120 70.8340 103° East 543 625 33,000  Level FlightAware
01:51PM 61.9930 71.0120 103° East 543 625 33,000  Level FlightAware
01:52PM 61.9380 71.3860 107° East 542 624 33,000  Level FlightAware
01:53PM 61.9130 71.5590 107° East 542 624 33,000  Level FlightAware
01:53PM 61.8880 71.7320 107° East 542 624 33,000  Level FlightAware
01:54PM 61.8630 71.9050 107° East 542 624 33,000  Level FlightAware
01:55PM 61.8130 72.2480 107° East 541 623 33,000  Level FlightAware
01:56PM 61.7820 72.4600 107° East 543 625 33,000  Level FlightAware
01:56PM 61.7530 72.6520 108° East 542 624 33,000  Level FlightAware
01:57PM 61.7190 72.8780 108° East 543 625 33,000  Level FlightAware
01:58PM 61.6840 73.1050 108° East 544 626 33,000  Level FlightAware
01:58PM 61.6560 73.2850 108° East 545 627 33,000  Level FlightAware
01:59PM 61.6190 73.5180 108° East 546 628 33,000  Level FlightAware
02:00PM 61.5890 73.7040 109° East 546 628 33,000  Level FlightAware
02:01PM 61.5580 73.9060 108° East 546 628 33,000  Level FlightAware
02:01PM 61.5120 74.1870 109° East 545 627 33,000  Level FlightAware
02:02PM 61.4610 74.4150 115° Southeast 545 627 33,000  Level FlightAware
02:03PM 61.4230 74.5780 116° Southeast 544 626 33,000  Level FlightAware
02:04PM 61.3720 74.7930 116° Southeast 544 626 33,000  Level FlightAware
02:04PM 61.3170 75.0150 117° Southeast 545 627 33,000  Level FlightAware
02:05PM 61.2720 75.1960 117° Southeast 545 627 33,000  Level FlightAware
02:05PM 61.2370 75.3370 117° Southeast 545 627 33,000  Level FlightAware
02:06PM 61.1870 75.5310 118° Southeast 546 628 33,000  Level FlightAware
02:07PM 61.1350 75.7410 117° Southeast 546 628 33,000  Level FlightAware
02:08PM 61.0830 75.9370 119° Southeast 548 631 33,000  Level FlightAware
02:08PM 61.0430 76.0940 118° Southeast 548 631 33,000  Level FlightAware
02:09PM 60.9790 76.3350 119° Southeast 549 632 33,000  Level FlightAware
02:10PM 60.9250 76.5650 116° Southeast 551 634 33,000  Level FlightAware
02:11PM 60.8870 76.7630 111° Southeast 552 635 33,000  Level FlightAware
02:12PM 60.7970 77.2210 112° Southeast 554 638 33,000  Level FlightAware
02:13PM 60.7640 77.3870 112° Southeast 554 638 33,000  Level FlightAware
02:14PM 60.7320 77.5520 112° Southeast 554 638 33,000  Level FlightAware
02:14PM 60.6990 77.7170 112° Southeast 554 638 33,000  Level FlightAware
02:15PM 60.6580 77.9240 112° Southeast 554 638 33,000  Level FlightAware
02:16PM 60.6250 78.0880 112° Southeast 554 638 33,000  Level FlightAware
02:16PM 60.5930 78.2530 111° Southeast 554 638 33,000  Level FlightAware
02:17PM 60.5600 78.4170 112° Southeast 554 638 33,000  Level FlightAware
02:18PM 60.5190 78.6230 112° Southeast 554 638 33,000  Level FlightAware
02:19PM 60.4860 78.7870 112° Southeast 554 638 33,000  Level FlightAware
02:19PM 60.4540 78.9510 112° Southeast 554 638 33,000  Level FlightAware
02:20PM 60.4210 79.1140 112° Southeast 554 638 33,000  Level FlightAware
02:21PM 60.3880 79.2780 112° Southeast 554 638 33,000  Level FlightAware
02:21PM 60.3480 79.4820 112° Southeast 554 638 33,000  Level FlightAware
02:24PM 60.2236 79.9689 117° Southeast  Level Estimated
02:25PM 60.1647 80.1958 117° Southeast  Level Estimated
02:26PM 60.1054 80.4220 118° Southeast  Level Estimated
02:27PM 60.0458 80.6473 118° Southeast  Level Estimated
02:28PM 59.9857 80.8718 118° Southeast  Level Estimated
02:29PM 59.9253 81.0955 118° Southeast  Level Estimated
02:30PM 59.8645 81.3184 118° Southeast  Level Estimated
02:31PM 59.8033 81.5404 119° Southeast  Level Estimated
02:32PM 59.7417 81.7617 119° Southeast  Level Estimated
02:33PM 59.6798 81.9821 119° Southeast  Level Estimated
02:34PM 59.6175 82.2017 119° Southeast  Level Estimated
02:35PM 59.5548 82.4205 119° Southeast  Level Estimated
02:36PM 59.4918 82.6385 120° Southeast  Level Estimated
02:37PM 59.4284 82.8557 120° Southeast  Level Estimated
02:38PM 59.3647 83.0720 120° Southeast  Level Estimated
02:39PM 59.3005 83.2876 120° Southeast  Level Estimated
02:40PM 59.2361 83.5023 120° Southeast  Level Estimated
02:41PM 59.1713 83.7162 121° Southeast  Level Estimated
02:42PM 59.1061 83.9293 121° Southeast  Level Estimated
02:43PM 59.0406 84.1416 121° Southeast  Level Estimated
02:43PM 57.5980 83.9760 121° Southeast 555 639 33,000  Level FlightAware
02:44PM 57.5140 84.1160 138° Southeast 557 641 33,000  Level FlightAware
02:44PM 57.4370 84.2420 139° Southeast 558 642 33,000  Level FlightAware
02:45PM 57.3600 84.3680 139° Southeast 558 642 33,000  Level FlightAware
02:45PM 57.3110 84.4470 139° Southeast 558 642 33,000  Level FlightAware
02:46PM 57.2260 84.5850 139° Southeast 559 643 33,000  Level FlightAware
02:47PM 57.1360 84.7270 139° Southeast 560 644 33,000  Level FlightAware
02:47PM 57.0550 84.8420 142° Southeast 560 644 33,000  Level FlightAware
02:48PM 56.9650 84.9640 144° Southeast 557 641 33,000  Level FlightAware
02:49PM 56.8770 85.0820 144° Southeast 555 639 33,000  Level FlightAware
02:50PM 56.7860 85.2040 144° Southeast 553 636 33,000 120 Level FlightAware
02:50PM 56.7030 85.3160 143° Southeast 552 635 33,200 780 Climbing FlightAware
02:51PM 56.6370 85.4220 139° Southeast 552 635 34,000 1,260 Climbing FlightAware
02:52PM 56.5630 85.5460 137° Southeast 555 639 34,800 720 Climbing FlightAware
02:52PM 56.4870 85.6750 137° Southeast 549 632 35,000 120 Climbing FlightAware
02:53PM 56.4100 85.8060 137° Southeast 548 631 35,000  Level FlightAware
02:54PM 56.3370 85.9280 137° Southeast 547 629 35,000  Level FlightAware
02:54PM 56.2520 86.0700 137° Southeast 542 624 35,000  Level FlightAware
02:55PM 56.1890 86.1720 138° Southeast 541 623 35,000  Level FlightAware
02:56PM 56.0940 86.3280 137° Southeast 539 620 35,000  Level FlightAware
02:56PM 56.0350 86.4250 137° Southeast 537 618 35,000  Level FlightAware
02:59PM 55.8972 86.8429 120° Southeast  Level Estimated
03:00PM 55.8321 87.0378 121° Southeast  Level Estimated
03:01PM 55.7667 87.2320 121° Southeast  Level Estimated
03:02PM 55.7010 87.4256 121° Southeast  Level Estimated
03:03PM 55.6349 87.6185 121° Southeast  Level Estimated
03:04PM 55.5686 87.8108 121° Southeast  Level Estimated
03:05PM 55.5020 88.0024 121° Southeast  Level Estimated
03:06PM 55.4351 88.1934 122° Southeast  Level Estimated
03:07PM 55.3679 88.3837 122° Southeast  Level Estimated
03:07PM 54.9960 88.2590 122° Southeast 516 594 35,000  Level FlightAware
03:07PM 54.9320 88.4290 123° Southeast 516 594 35,000  Level FlightAware
03:08PM 54.8810 88.5630 123° Southeast 516 594 35,000  Level FlightAware
03:09PM 54.8200 88.7220 124° Southeast 513 590 35,000  Level FlightAware
03:09PM 54.7710 88.8500 124° Southeast 512 589 35,000  Level FlightAware
03:10PM 54.7170 88.9890 124° Southeast 513 590 35,000  Level FlightAware
03:11PM 54.6590 89.1400 124° Southeast 513 590 35,000  Level FlightAware
03:11PM 54.6070 89.2730 124° Southeast 516 594 35,000  Level FlightAware
03:12PM 54.5410 89.4420 124° Southeast 518 596 35,000  Level FlightAware
03:13PM 54.4780 89.6000 124° Southeast 514 592 35,000  Level FlightAware
03:14PM 54.4240 89.7380 124° Southeast 513 590 35,000  Level FlightAware
03:15PM 54.3490 89.9260 124° Southeast 514 592 35,000  Level FlightAware
03:15PM 54.2930 90.0670 124° Southeast 514 592 35,000  Level FlightAware
03:16PM 54.2480 90.1810 124° Southeast 514 592 35,000  Level FlightAware
03:17PM 54.2030 90.2960 124° Southeast 514 592 35,000  Level FlightAware
03:17PM 54.1570 90.4110 124° Southeast 514 592 35,000  Level FlightAware
03:18PM 54.1120 90.5250 124° Southeast 514 592 35,000  Level FlightAware
03:19PM 54.0560 90.6680 124° Southeast 514 592 35,000  Level FlightAware
03:20PM 54.0100 90.7820 124° Southeast 514 592 35,000  Level FlightAware
03:20PM 53.9650 90.8960 124° Southeast 514 592 35,000  Level FlightAware
03:21PM 53.9200 91.0100 124° Southeast 514 592 35,000  Level FlightAware
03:22PM 53.8750 91.1240 124° Southeast 514 592 35,000  Level FlightAware
03:22PM 53.8180 91.2660 124° Southeast 514 592 35,000  Level FlightAware
03:23PM 53.7730 91.3790 124° Southeast 514 592 35,000  Level FlightAware
03:24PM 53.7280 91.4920 124° Southeast 514 592 35,000  Level FlightAware
03:24PM 53.6830 91.6060 124° Southeast 514 592 35,000  Level FlightAware
03:27PM 53.5367 91.9701 124° Southeast  Level Estimated
03:28PM 53.4650 92.1468 124° Southeast  Level Estimated
03:29PM 53.3929 92.3229 124° Southeast  Level Estimated
03:30PM 53.3207 92.4984 125° Southeast  Level Estimated
03:31PM 53.2481 92.6733 125° Southeast  Level Estimated
03:32PM 53.1754 92.8476 125° Southeast  Level Estimated
03:33PM 53.1023 93.0214 125° Southeast  Level Estimated
03:34PM 53.0290 93.1945 125° Southeast  Level Estimated
03:35PM 52.9555 93.3671 125° Southeast  Level Estimated
03:36PM 52.8817 93.5390 125° Southeast  Level Estimated
03:37PM 52.8077 93.7104 126° Southeast  Level Estimated
03:38PM 52.7334 93.8812 126° Southeast  Level Estimated
03:39PM 52.6588 94.0514 126° Southeast  Level Estimated
03:40PM 52.5841 94.2210 126° Southeast  Level Estimated
03:41PM 52.5090 94.3901 126° Southeast  Level Estimated
03:42PM 52.4338 94.5586 126° Southeast  Level Estimated
03:43PM 52.3583 94.7265 126° Southeast  Level Estimated
03:44PM 52.2826 94.8938 126° Southeast  Level Estimated
03:45PM 52.2066 95.0606 127° Southeast  Level Estimated
03:46PM 52.1304 95.2268 127° Southeast  Level Estimated
03:47PM 52.0540 95.3924 127° Southeast  Level Estimated
03:48PM 51.9773 95.5574 127° Southeast  Level Estimated
03:49PM 51.9004 95.7219 127° Southeast  Level Estimated
03:50PM 51.8233 95.8858 127° Southeast  Level Estimated
03:51PM 51.7460 96.0492 127° Southeast  Level Estimated
03:52PM 51.6684 96.2120 127° Southeast  Level Estimated
03:53PM 51.5906 96.3743 128° Southeast  Level Estimated
03:54PM 51.5126 96.5359 128° Southeast  Level Estimated
03:55PM 51.4343 96.6971 128° Southeast  Level Estimated
03:56PM 51.3559 96.8577 128° Southeast  Level Estimated
03:57PM 51.2772 97.0177 128° Southeast  Level Estimated
03:58PM 51.1983 97.1772 128° Southeast  Level Estimated
03:59PM 51.1192 97.3361 128° Southeast  Level Estimated
04:00PM 51.0398 97.4945 129° Southeast  Level Estimated
04:01PM 50.9603 97.6524 129° Southeast  Level Estimated
04:02PM 50.8805 97.8097 129° Southeast  Level Estimated
04:03PM 50.8006 97.9665 129° Southeast  Level Estimated
04:04PM 50.7204 98.1227 129° Southeast  Level Estimated
04:05PM 50.6400 98.2784 129° Southeast  Level Estimated
04:06PM 50.5594 98.4336 129° Southeast  Level Estimated
04:07PM 50.4786 98.5882 129° Southeast  Level Estimated
04:08PM 50.3976 98.7423 129° Southeast  Level Estimated
04:09PM 50.3164 98.8959 130° Southeast  Level Estimated
04:10PM 50.2350 99.0490 130° Southeast  Level Estimated
04:11PM 50.1534 99.2015 130° Southeast  Level Estimated
04:12PM 50.0716 99.3535 130° Southeast  Level Estimated
04:13PM 49.9896 99.5050 130° Southeast  Level Estimated
04:14PM 49.9074 99.6560 130° Southeast  Level Estimated
04:15PM 49.8250 99.8065 130° Southeast  Level Estimated
04:16PM 49.7424 99.9565 130° Southeast  Level Estimated
04:17PM 49.6596 100.1059 131° Southeast  Level Estimated
04:18PM 49.5767 100.2548 131° Southeast  Level Estimated
04:19PM 49.4935 100.4033 131° Southeast  Level Estimated
04:20PM 49.4101 100.5512 131° Southeast  Level Estimated
04:21PM 49.3266 100.6986 131° Southeast  Level Estimated
04:22PM 49.2429 100.8456 131° Southeast  Level Estimated
04:23PM 49.1590 100.9920 131° Southeast  Level Estimated
04:24PM 49.0749 101.1379 131° Southeast  Level Estimated
04:25PM 48.9906 101.2834 131° Southeast  Level Estimated
04:26PM 48.9061 101.4283 132° Southeast  Level Estimated
04:27PM 48.8215 101.5728 132° Southeast  Level Estimated
04:28PM 48.7367 101.7167 132° Southeast  Level Estimated
04:29PM 48.6517 101.8602 132° Southeast  Level Estimated
04:30PM 48.5665 102.0032 132° Southeast  Level Estimated
04:31PM 48.4811 102.1458 132° Southeast  Level Estimated
04:32PM 48.3956 102.2878 132° Southeast  Level Estimated
04:33PM 48.3099 102.4294 132° Southeast  Level Estimated
04:34PM 48.2240 102.5704 132° Southeast  Level Estimated
04:35PM 48.1380 102.7111 132° Southeast  Level Estimated
04:36PM 48.0517 102.8512 133° Southeast  Level Estimated
04:37PM 47.9654 102.9909 133° Southeast  Level Estimated
04:38PM 47.8788 103.1301 133° Southeast  Level Estimated
04:39PM 47.7921 103.2688 133° Southeast  Level Estimated
04:40PM 47.7052 103.4071 133° Southeast  Level Estimated
04:41PM 47.6181 103.5449 133° Southeast  Level Estimated
04:42PM 47.5309 103.6823 133° Southeast  Level Estimated
04:43PM 47.4435 103.8192 133° Southeast  Level Estimated
04:44PM 47.3559 103.9556 133° Southeast  Level Estimated
04:45PM 47.2682 104.0916 134° Southeast  Level Estimated
04:46PM 47.1804 104.2272 134° Southeast  Level Estimated
04:47PM 47.0923 104.3623 134° Southeast  Level Estimated
04:48PM 47.0041 104.4969 134° Southeast  Level Estimated
04:49PM 46.9158 104.6311 134° Southeast  Level Estimated
04:50PM 46.8273 104.7649 134° Southeast  Level Estimated
04:51PM 46.7386 104.8982 134° Southeast  Level Estimated
04:52PM 46.6498 105.0311 134° Southeast  Level Estimated
04:53PM 46.5608 105.1636 134° Southeast  Level Estimated
04:54PM 46.4717 105.2956 134° Southeast  Level Estimated
04:55PM 46.3824 105.4272 134° Southeast  Level Estimated
04:56PM 46.2930 105.5584 135° Southeast  Level Estimated
04:57PM 46.2034 105.6891 135° Southeast  Level Estimated
04:58PM 46.1137 105.8194 135° Southeast  Level Estimated
04:59PM 46.0238 105.9493 135° Southeast  Level Estimated
05:00PM 45.9338 106.0787 135° Southeast  Level Estimated
05:01PM 45.8437 106.2078 135° Southeast  Level Estimated
05:02PM 45.7534 106.3364 135° Southeast  Level Estimated
05:03PM 45.6629 106.4646 135° Southeast  Level Estimated
05:04PM 45.5723 106.5924 135° Southeast  Level Estimated
05:05PM 45.4816 106.7198 135° Southeast  Level Estimated
05:06PM 45.3907 106.8467 136° Southeast  Level Estimated
05:07PM 45.2997 106.9733 136° Southeast  Level Estimated
05:08PM 45.2085 107.0994 136° Southeast  Level Estimated
05:09PM 45.1173 107.2252 136° Southeast  Level Estimated
05:10PM 45.0258 107.3505 136° Southeast  Level Estimated
05:11PM 44.9343 107.4755 136° Southeast  Level Estimated
05:12PM 44.8426 107.6000 136° Southeast  Level Estimated
05:13PM 44.7507 107.7242 136° Southeast  Level Estimated
05:14PM 44.6587 107.8480 136° Southeast  Level Estimated
05:15PM 44.5666 107.9713 136° Southeast  Level Estimated
05:16PM 44.4744 108.0943 136° Southeast  Level Estimated
05:17PM 44.3820 108.2169 136° Southeast  Level Estimated
05:18PM 44.2895 108.3391 137° Southeast  Level Estimated
05:19PM 44.1969 108.4609 137° Southeast  Level Estimated
05:20PM 44.1041 108.5823 137° Southeast  Level Estimated
05:21PM 44.0112 108.7034 137° Southeast  Level Estimated
05:22PM 43.9182 108.8241 137° Southeast  Level Estimated
05:23PM 43.8251 108.9444 137° Southeast  Level Estimated
05:24PM 43.7318 109.0643 137° Southeast  Level Estimated
05:25PM 43.6384 109.1838 137° Southeast  Level Estimated
05:26PM 43.5449 109.3030 137° Southeast  Level Estimated
05:27PM 43.4513 109.4218 137° Southeast  Level Estimated
05:28PM 43.3575 109.5403 137° Southeast  Level Estimated
05:29PM 43.2636 109.6583 137° Southeast  Level Estimated
05:30PM 43.1696 109.7760 138° Southeast  Level Estimated
05:31PM 43.0755 109.8934 138° Southeast  Level Estimated
05:32PM 42.9813 110.0104 138° Southeast  Level Estimated
05:33PM 42.8869 110.1270 138° Southeast  Level Estimated
05:34PM 42.7924 110.2433 138° Southeast  Level Estimated
05:35PM 42.6978 110.3592 138° Southeast  Level Estimated
05:36PM 42.6031 110.4748 138° Southeast  Level Estimated
05:37PM 42.5083 110.5900 138° Southeast  Level Estimated
05:38PM 42.4133 110.7048 138° Southeast  Level Estimated
05:39PM 42.3182 110.8194 138° Southeast  Level Estimated
05:40PM 42.2231 110.9335 138° Southeast  Level Estimated
05:41PM 42.1278 111.0474 138° Southeast  Level Estimated
05:42PM 42.0324 111.1609 139° Southeast  Level Estimated
05:43PM 41.9369 111.2740 139° Southeast  Level Estimated
05:44PM 41.8413 111.3868 139° Southeast  Level Estimated
05:45PM 41.7455 111.4993 139° Southeast  Level Estimated
05:46PM 41.6497 111.6114 139° Southeast  Level Estimated
05:47PM 41.5537 111.7232 139° Southeast  Level Estimated
05:48PM 41.4577 111.8347 139° Southeast  Level Estimated
05:49PM 41.3615 111.9458 139° Southeast  Level Estimated
05:50PM 41.2652 112.0566 139° Southeast  Level Estimated
05:51PM 41.1689 112.1671 139° Southeast  Level Estimated
05:52PM 41.0724 112.2773 139° Southeast  Level Estimated
05:53PM 40.9758 112.3871 139° Southeast  Level Estimated
05:54PM 40.8791 112.4967 139° Southeast  Level Estimated
05:55PM 40.7823 112.6059 139° Southeast  Level Estimated
05:56PM 40.6854 112.7147 140° Southeast  Level Estimated
05:57PM 40.5884 112.8233 140° Southeast  Level Estimated
05:58PM 40.4913 112.9315 140° Southeast  Level Estimated
05:59PM 40.3941 113.0395 140° Southeast  Level Estimated
06:00PM 40.2968 113.1471 140° Southeast  Level Estimated
06:01PM 40.1994 113.2544 140° Southeast  Level Estimated
06:02PM 40.1019 113.3614 140° Southeast  Level Estimated
06:03PM 40.0043 113.4681 140° Southeast  Level Estimated
06:04PM 39.9066 113.5745 140° Southeast  Level Estimated
06:05PM 39.8088 113.6806 140° Southeast  Level Estimated
06:06PM 39.7109 113.7864 140° Southeast  Level Estimated
06:07PM 39.6129 113.8919 140° Southeast  Level Estimated
06:08PM 39.5149 113.9971 140° Southeast  Level Estimated
06:09PM 39.4167 114.1020 140° Southeast  Level Estimated
06:10PM 39.3184 114.2066 141° Southeast  Level Estimated
06:11PM 39.2201 114.3109 141° Southeast  Level Estimated
06:12PM 39.1216 114.4149 141° Southeast  Level Estimated
06:13PM 39.0231 114.5186 141° Southeast  Level Estimated
06:14PM 38.9244 114.6221 141° Southeast  Level Estimated
06:15PM 38.8257 114.7252 141° Southeast  Level Estimated
06:16PM 38.7269 114.8281 141° Southeast  Level Estimated
06:17PM 38.6280 114.9307 141° Southeast  Level Estimated
06:18PM 38.5290 115.0330 141° Southeast  Level Estimated
06:19PM 38.4299 115.1350 141° Southeast  Level Estimated
06:20PM 38.3307 115.2367 141° Southeast  Level Estimated
06:21PM 38.2314 115.3382 141° Southeast  Level Estimated
06:22PM 38.1321 115.4393 141° Southeast  Level Estimated
06:23PM 38.0326 115.5402 141° Southeast  Level Estimated
06:24PM 37.9331 115.6409 141° Southeast  Level Estimated
06:25PM 37.8335 115.7412 141° Southeast  Level Estimated
06:26PM 37.7338 115.8413 142° Southeast  Level Estimated
06:27PM 37.6340 115.9411 142° Southeast  Level Estimated
06:28PM 37.5342 116.0407 142° Southeast  Level Estimated
06:29PM 37.4342 116.1400 142° Southeast  Level Estimated
06:30PM 37.3342 116.2390 142° Southeast  Level Estimated
06:31PM 37.2341 116.3378 142° Southeast  Level Estimated
06:32PM 37.1339 116.4362 142° Southeast  Level Estimated
06:33PM 37.0336 116.5345 142° Southeast  Level Estimated
06:34PM 36.9333 116.6324 142° Southeast  Level Estimated
06:35PM 36.8329 116.7302 142° Southeast  Level Estimated
06:36PM 36.7324 116.8276 142° Southeast  Level Estimated
06:37PM 36.6318 116.9248 142° Southeast  Level Estimated
06:38PM 36.5311 117.0218 142° Southeast  Level Estimated
06:39PM 36.4304 117.1185 142° Southeast  Level Estimated
06:40PM 36.3295 117.2149 142° Southeast  Level Estimated
06:41PM 36.2286 117.3111 142° Southeast  Level Estimated
06:42PM 36.1276 117.4071 142° Southeast  Level Estimated
06:43PM 36.0266 117.5028 143° Southeast  Level Estimated
06:44PM 35.9254 117.5982 143° Southeast  Level Estimated
06:45PM 35.8242 117.6934 143° Southeast  Level Estimated
06:46PM 35.7229 117.7884 143° Southeast  Level Estimated
06:47PM 35.6216 117.8831 143° Southeast  Level Estimated
06:48PM 35.5202 117.9776 143° Southeast  Level Estimated
06:49PM 35.4187 118.0719 143° Southeast  Level Estimated
06:50PM 35.3171 118.1659 143° Southeast  Level Estimated
06:51PM 35.2154 118.2597 143° Southeast  Level Estimated
06:52PM 35.1137 118.3532 143° Southeast  Level Estimated
06:53PM 35.0119 118.4465 143° Southeast  Level Estimated
06:54PM 34.9100 118.5396 143° Southeast  Level Estimated
06:55PM 34.8081 118.6325 143° Southeast  Level Estimated
06:56PM 34.7061 118.7251 143° Southeast  Level Estimated
06:57PM 34.6040 118.8175 143° Southeast  Level Estimated
06:58PM 34.5019 118.9096 143° Southeast  Level Estimated
06:59PM 34.3996 119.0016 143° Southeast  Level Estimated
07:00PM 34.2974 119.0933 143° Southeast  Level Estimated
07:01PM 34.1950 119.1848 144° Southeast  Level Estimated
07:02PM 34.0926 119.2760 144° Southeast  Level Estimated
07:02PM 31.6680 118.1060 144° Southeast 522 601 35,100  Level FlightAware
07:03PM 33.9901 119.3671 144° Southeast  Level Estimated
07:03PM 31.6590 118.2440 94° East 524 603 35,100  Level FlightAware
07:04PM 31.6510 118.3580 95° East 525 604 35,100  Level FlightAware
07:04PM 31.6430 118.4710 95° East 527 606 35,100  Level FlightAware
07:05PM 31.6340 118.6040 95° East 526 605 35,100  Level FlightAware
07:06PM 31.6250 118.7160 95° East 525 604 35,100  Level FlightAware
07:06PM 31.6170 118.8300 95° East 524 603 35,100 -1,320 Level FlightAware
07:07PM 31.6080 118.9580 95° East 524 603 33,300 -2,640 Descending FlightAware
07:08PM 31.5990 119.0700 95° East 531 611 31,400 -2,340 Descending FlightAware
07:09PM 31.5910 119.1990 94° East 516 594 30,000 -1,920 Descending FlightAware
07:09PM 31.5880 119.2960 92° East 506 582 28,900 -1,800 Descending FlightAware
07:10PM 31.5830 119.4120 93° East 492 566 27,600 -1,260 Descending FlightAware
07:11PM 31.5770 119.5520 93° East 486 559 26,800 -1,920 Descending FlightAware
07:12PM 31.5700 119.6660 94° East 472 543 24,400 -2,100 Descending FlightAware
07:12PM 31.5660 119.7700 93° East 472 543 23,900 -1,140 Descending FlightAware
07:13PM 31.5770 119.9180 85° East 452 520 22,500 -1,920 Descending FlightAware
07:14PM 31.5790 119.9870 88° East 452 520 21,100 -1,020 Descending FlightAware
07:15PM 31.5880 120.1090 85° East 452 520 21,100  Level FlightAware
07:15PM 31.5940 120.1930 85° East 452 520 21,100 -720 Level FlightAware
07:16PM 31.5870 120.3120 94° East 433 498 20,200 -1,020 Descending FlightAware
07:17PM 31.5660 120.4130 104° East 424 488 19,700 -360 Descending FlightAware
07:17PM 31.5390 120.4990 110° East 427 491 19,700  Level FlightAware
07:18PM 31.5120 120.5870 110° East 429 494 19,700 -900 Level FlightAware
07:19PM 31.4820 120.6840 110° East 420 483 18,500 -1,800 Descending FlightAware
07:19PM 31.4560 120.7710 109° East 413 475 17,200 -1,800 Descending FlightAware
07:20PM 31.4310 120.8530 110° East 401 461 16,100 -1,800 Descending FlightAware
07:21PM 31.4030 120.9450 110° East 395 455 14,700 -1,800 Descending FlightAware
07:22PM 31.3780 121.0240 110° East 386 444 13,600 -1,740 Descending FlightAware
07:22PM 31.3510 121.1110 110° East 377 434 12,300 -1,560 Descending FlightAware
07:23PM 31.3290 121.1870 109° East 360 414 11,400 -1,500 Descending FlightAware
07:24PM 31.3040 121.2680 110° East 355 409 10,200 -1,020 Descending FlightAware
07:24PM 31.2890 121.3370 104° East 308 354 10,000 -180 Descending FlightAware
07:25PM 31.2890 121.3980 90° East 303 349 10,000 -1,560 Level FlightAware
07:26PM 31.3020 121.4380 69° East 261 300 8,200 -1,980 Descending FlightAware
07:26PM 31.3080 121.4720 78° East 261 300 8,200 -2,100 Level FlightAware
07:26PM 31.3190 121.5100 71° East 250 288 6,300 -3,000 Descending FlightAware
07:27PM 31.3280 121.5430 72° East 240 276 5,500 -2,100 Descending FlightAware
07:27PM 31.3380 121.5800 72° East 235 270 4,400 -1,860 Descending FlightAware
07:28PM 31.3470 121.6100 71° East 232 267 3,800 -1,140 Descending FlightAware
07:28PM 31.3580 121.6500 72° East 214 246 3,300 -840 Descending FlightAware
07:29PM 31.3620 121.6800 81° East 204 235 3,000 -600 Descending FlightAware
07:29PM 31.3560 121.7100 103° East 198 228 2,800 -360 Descending FlightAware
07:30PM 31.3440 121.7310 124° Southeast 185 213 2,700 -360 Descending FlightAware
07:30PM 31.3250 121.7490 141° Southeast 176 203 2,500 -240 Descending FlightAware
07:31PM 31.3030 121.7580 161° South 168 193 2,500 -240 Level FlightAware
07:32PM 31.2610 121.7730 163° South 174 200 2,200 -720 Descending FlightAware
07:32PM 31.2390 121.7820 161° South 152 175 1,500 -720 Descending FlightAware
07:33PM 31.2120 121.7920 162° South 152 175 1,300 -780 Descending FlightAware
07:34PM 31.1820 121.8030 163° South 135 155 400 -960 Descending FlightAware
07:34PM 31.1680 121.8080 163° South 138 159 100 -360 Descending FlightAware
07:35PM 31.1530 121.8140 161° South 138 159 100  Level FlightAware
07:37PM 31.1428 121.7924 241° Southwest  Level Estimated
07:38PM 31.1428 121.7924 221° Southwest  Level Estimated
07:39PM 31.1428 121.7924 221° Southwest  Level Estimated
07:40PM 31.1428 121.7924 221° Southwest  Level Estimated
07:41PM 31.1428 121.7924 221° Southwest  Level Estimated
07:42PM 31.1428 121.7924 221° Southwest  Level Estimated
07:43PM 31.1428 121.7924 221° Southwest  Level Estimated
07:44PM 31.1428 121.7924 221° Southwest  Level Estimated
07:45PM 31.1428 121.7924 221° Southwest  Level Estimated
07:46PM 31.1428 121.7924 221° Southwest  Level Estimated
07:47PM 31.1428 121.7924 221° Southwest  Level Estimated
07:48PM 31.1428 121.7924 221° Southwest  Level Estimated